sensor_id;sensor_type;location;lat;lon;timestamp;temperature;humidity
4727;DHT22;2377;51.734;8.950;2022-12-18T00:01:24;-6.10;99.90
4727;DHT22;2377;51.734;8.950;2022-12-18T00:03:54;-6.10;99.90
4727;DHT22;2377;51.734;8.950;2022-12-18T00:06:23;-6.10;99.90
4727;DHT22;2377;51.734;8.950;2022-12-18T00:08:52;-6.10;99.90
4727;DHT22;2377;51.734;8.950;2022-12-18T00:11:22;-6.20;99.90
4727;DHT22;2377;51.734;8.950;2022-12-18T00:13:54;-6.20;99.90
4727;DHT22;2377;51.734;8.950;2022-12-18T00:16:24;-6.10;99.90
4727;DHT22;2377;51.734;8.950;2022-12-18T00:18:55;-6.10;99.90
4727;DHT22;2377;51.734;8.950;2022-12-18T00:21:23;-6.20;99.90
4727;DHT22;2377;51.734;8.950;2022-12-18T00:23:51;-6.10;99.90
4727;DHT22;2377;51.734;8.950;2022-12-18T00:26:20;-6.00;99.90
4727;DHT22;2377;51.734;8.950;2022-12-18T00:28:50;-6.10;99.90
4727;DHT22;2377;51.734;8.950;2022-12-18T00:33:59;-6.10;99.90
4727;DHT22;2377;51.734;8.950;2022-12-18T00:36:28;-6.00;99.90
4727;DHT22;2377;51.734;8.950;2022-12-18T00:38:58;-6.00;99.90
4727;DHT22;2377;51.734;8.950;2022-12-18T00:41:27;-6.00;99.90
4727;DHT22;2377;51.734;8.950;2022-12-18T00:44:11;-5.90;99.90
4727;DHT22;2377;51.734;8.950;2022-12-18T00:46:40;-5.90;99.90
4727;DHT22;2377;51.734;8.950;2022-12-18T00:49:07;-5.90;99.90
4727;DHT22;2377;51.734;8.950;2022-12-18T00:51:37;-5.90;99.90
4727;DHT22;2377;51.734;8.950;2022-12-18T00:54:05;-5.90;99.90
4727;DHT22;2377;51.734;8.950;2022-12-18T00:56:35;-5.80;99.90
4727;DHT22;2377;51.734;8.950;2022-12-18T00:59:04;-5.80;99.90
4727;DHT22;2377;51.734;8.950;2022-12-18T01:01:33;-5.80;99.90
4727;DHT22;2377;51.734;8.950;2022-12-18T01:04:01;-5.80;99.90
4727;DHT22;2377;51.734;8.950;2022-12-18T01:06:29;-5.80;99.90
4727;DHT22;2377;51.734;8.950;2022-12-18T01:08:57;-5.80;99.90
4727;DHT22;2377;51.734;8.950;2022-12-18T01:11:24;-5.80;99.90
4727;DHT22;2377;51.734;8.950;2022-12-18T01:13:52;-5.80;99.90
4727;DHT22;2377;51.734;8.950;2022-12-18T01:16:20;-5.70;99.90
4727;DHT22;2377;51.734;8.950;2022-12-18T01:18:51;-5.80;99.90
4727;DHT22;2377;51.734;8.950;2022-12-18T01:21:21;-5.80;99.90
4727;DHT22;2377;51.734;8.950;2022-12-18T01:23:51;-5.80;99.90
4727;DHT22;2377;51.734;8.950;2022-12-18T01:26:19;-5.80;99.90
4727;DHT22;2377;51.734;8.950;2022-12-18T01:28:47;-5.80;99.90
4727;DHT22;2377;51.734;8.950;2022-12-18T01:31:17;-5.80;99.90
4727;DHT22;2377;51.734;8.950;2022-12-18T01:33:51;-5.80;99.90
4727;DHT22;2377;51.734;8.950;2022-12-18T01:36:20;-5.60;99.90
4727;DHT22;2377;51.734;8.950;2022-12-18T01:38:50;-5.60;99.90
4727;DHT22;2377;51.734;8.950;2022-12-18T01:41:21;-5.60;99.90
4727;DHT22;2377;51.734;8.950;2022-12-18T01:43:52;-5.60;99.90
4727;DHT22;2377;51.734;8.950;2022-12-18T01:46:22;-5.60;99.90
4727;DHT22;2377;51.734;8.950;2022-12-18T01:48:57;-5.60;99.90
4727;DHT22;2377;51.734;8.950;2022-12-18T01:51:27;-5.70;99.90
4727;DHT22;2377;51.734;8.950;2022-12-18T01:53:55;-5.70;99.90
4727;DHT22;2377;51.734;8.950;2022-12-18T01:56:23;-5.70;99.90
4727;DHT22;2377;51.734;8.950;2022-12-18T01:58:54;-5.70;99.90
4727;DHT22;2377;51.734;8.950;2022-12-18T02:01:25;-5.60;99.90
4727;DHT22;2377;51.734;8.950;2022-12-18T02:03:53;-5.60;99.90
4727;DHT22;2377;51.734;8.950;2022-12-18T02:06:26;-5.60;99.90
4727;DHT22;2377;51.734;8.950;2022-12-18T02:09:08;-5.60;99.90
4727;DHT22;2377;51.734;8.950;2022-12-18T02:11:46;-5.60;99.90
4727;DHT22;2377;51.734;8.950;2022-12-18T02:14:25;-5.60;99.90
4727;DHT22;2377;51.734;8.950;2022-12-18T02:17:06;-5.60;99.90
4727;DHT22;2377;51.734;8.950;2022-12-18T02:19:52;-5.50;99.90
4727;DHT22;2377;51.734;8.950;2022-12-18T02:22:39;-5.50;99.90
4727;DHT22;2377;51.734;8.950;2022-12-18T02:25:25;-5.50;99.90
4727;DHT22;2377;51.734;8.950;2022-12-18T02:28:09;-5.50;99.90
4727;DHT22;2377;51.734;8.950;2022-12-18T02:30:41;-5.50;99.90
4727;DHT22;2377;51.734;8.950;2022-12-18T02:33:11;-5.50;99.90
4727;DHT22;2377;51.734;8.950;2022-12-18T02:35:41;-5.50;99.90
4727;DHT22;2377;51.734;8.950;2022-12-18T02:38:12;-5.60;99.90
4727;DHT22;2377;51.734;8.950;2022-12-18T02:40:42;-5.60;99.90
4727;DHT22;2377;51.734;8.950;2022-12-18T02:43:14;-5.60;99.90
4727;DHT22;2377;51.734;8.950;2022-12-18T02:45:47;-5.60;99.90
4727;DHT22;2377;51.734;8.950;2022-12-18T02:48:17;-5.60;99.90
4727;DHT22;2377;51.734;8.950;2022-12-18T02:50:54;-5.50;99.90
4727;DHT22;2377;51.734;8.950;2022-12-18T02:53:36;-5.50;99.90
4727;DHT22;2377;51.734;8.950;2022-12-18T02:56:12;-5.50;99.90
4727;DHT22;2377;51.734;8.950;2022-12-18T02:58:49;-5.50;99.90
4727;DHT22;2377;51.734;8.950;2022-12-18T03:01:30;-5.50;99.90
4727;DHT22;2377;51.734;8.950;2022-12-18T03:04:07;-5.50;99.90
4727;DHT22;2377;51.734;8.950;2022-12-18T03:06:40;-5.50;99.90
4727;DHT22;2377;51.734;8.950;2022-12-18T03:09:14;-5.50;99.90
4727;DHT22;2377;51.734;8.950;2022-12-18T03:11:48;-5.50;99.90
4727;DHT22;2377;51.734;8.950;2022-12-18T03:14:41;-5.50;99.90
4727;DHT22;2377;51.734;8.950;2022-12-18T03:17:14;-5.40;99.90
4727;DHT22;2377;51.734;8.950;2022-12-18T03:19:46;-5.30;99.90
4727;DHT22;2377;51.734;8.950;2022-12-18T03:22:16;-5.30;99.90
4727;DHT22;2377;51.734;8.950;2022-12-18T03:24:46;-5.30;99.90
4727;DHT22;2377;51.734;8.950;2022-12-18T03:27:18;-5.30;99.90
4727;DHT22;2377;51.734;8.950;2022-12-18T03:29:54;-5.30;99.90
4727;DHT22;2377;51.734;8.950;2022-12-18T03:32:37;-5.30;99.90
4727;DHT22;2377;51.734;8.950;2022-12-18T03:35:12;-5.30;99.90
4727;DHT22;2377;51.734;8.950;2022-12-18T03:37:43;-5.40;99.90
4727;DHT22;2377;51.734;8.950;2022-12-18T03:40:10;-5.50;99.90
4727;DHT22;2377;51.734;8.950;2022-12-18T03:42:46;-5.50;99.90
4727;DHT22;2377;51.734;8.950;2022-12-18T03:45:22;-5.50;99.90
4727;DHT22;2377;51.734;8.950;2022-12-18T03:47:59;-5.50;99.90
4727;DHT22;2377;51.734;8.950;2022-12-18T03:50:37;-5.50;99.90
4727;DHT22;2377;51.734;8.950;2022-12-18T03:53:17;-5.60;99.90
4727;DHT22;2377;51.734;8.950;2022-12-18T03:55:53;-5.50;99.90
4727;DHT22;2377;51.734;8.950;2022-12-18T03:58:24;-5.60;99.90
4727;DHT22;2377;51.734;8.950;2022-12-18T04:00:56;-5.60;99.90
4727;DHT22;2377;51.734;8.950;2022-12-18T04:03:29;-5.60;99.90
4727;DHT22;2377;51.734;8.950;2022-12-18T04:06:00;-5.60;99.90
4727;DHT22;2377;51.734;8.950;2022-12-18T04:08:29;-5.60;99.90
4727;DHT22;2377;51.734;8.950;2022-12-18T04:10:56;-5.60;99.90
4727;DHT22;2377;51.734;8.950;2022-12-18T04:13:27;-5.50;99.90
4727;DHT22;2377;51.734;8.950;2022-12-18T04:15:56;-5.60;99.90
4727;DHT22;2377;51.734;8.950;2022-12-18T04:18:23;-5.60;99.90
4727;DHT22;2377;51.734;8.950;2022-12-18T04:20:50;-5.50;99.90
4727;DHT22;2377;51.734;8.950;2022-12-18T04:23:18;-5.50;99.90
4727;DHT22;2377;51.734;8.950;2022-12-18T04:25:46;-5.50;99.90
4727;DHT22;2377;51.734;8.950;2022-12-18T04:28:14;-5.50;99.90
4727;DHT22;2377;51.734;8.950;2022-12-18T04:30:41;-5.50;99.90
4727;DHT22;2377;51.734;8.950;2022-12-18T04:33:10;-5.50;99.90
4727;DHT22;2377;51.734;8.950;2022-12-18T04:35:38;-5.40;99.90
4727;DHT22;2377;51.734;8.950;2022-12-18T04:38:06;-5.30;99.90
4727;DHT22;2377;51.734;8.950;2022-12-18T04:40:35;-5.30;99.90
4727;DHT22;2377;51.734;8.950;2022-12-18T04:43:02;-5.20;99.90
4727;DHT22;2377;51.734;8.950;2022-12-18T04:45:30;-5.20;99.90
4727;DHT22;2377;51.734;8.950;2022-12-18T04:47:57;-5.10;99.90
4727;DHT22;2377;51.734;8.950;2022-12-18T04:50:26;-5.10;99.90
4727;DHT22;2377;51.734;8.950;2022-12-18T04:52:54;-5.10;99.90
4727;DHT22;2377;51.734;8.950;2022-12-18T04:55:21;-5.00;99.90
4727;DHT22;2377;51.734;8.950;2022-12-18T04:57:48;-5.00;99.90
4727;DHT22;2377;51.734;8.950;2022-12-18T05:00:16;-5.00;99.90
4727;DHT22;2377;51.734;8.950;2022-12-18T05:02:43;-4.90;99.90
4727;DHT22;2377;51.734;8.950;2022-12-18T05:05:10;-4.80;99.90
4727;DHT22;2377;51.734;8.950;2022-12-18T05:07:39;-4.90;99.90
4727;DHT22;2377;51.734;8.950;2022-12-18T05:10:07;-4.80;99.90
4727;DHT22;2377;51.734;8.950;2022-12-18T05:12:35;-4.80;99.90
4727;DHT22;2377;51.734;8.950;2022-12-18T05:15:22;-4.80;99.90
4727;DHT22;2377;51.734;8.950;2022-12-18T05:17:50;-4.80;99.90
4727;DHT22;2377;51.734;8.950;2022-12-18T05:20:17;-4.80;99.90
4727;DHT22;2377;51.734;8.950;2022-12-18T05:22:46;-4.80;99.90
4727;DHT22;2377;51.734;8.950;2022-12-18T05:25:13;-4.80;99.90
4727;DHT22;2377;51.734;8.950;2022-12-18T05:27:41;-4.80;99.90
4727;DHT22;2377;51.734;8.950;2022-12-18T05:30:09;-4.80;99.90
4727;DHT22;2377;51.734;8.950;2022-12-18T05:32:38;-4.80;99.90
4727;DHT22;2377;51.734;8.950;2022-12-18T05:35:10;-4.80;99.90
4727;DHT22;2377;51.734;8.950;2022-12-18T05:37:38;-4.80;99.90
4727;DHT22;2377;51.734;8.950;2022-12-18T05:40:08;-4.80;99.90
4727;DHT22;2377;51.734;8.950;2022-12-18T05:42:36;-4.70;99.90
4727;DHT22;2377;51.734;8.950;2022-12-18T05:45:05;-4.70;99.90
4727;DHT22;2377;51.734;8.950;2022-12-18T05:47:33;-4.60;99.90
4727;DHT22;2377;51.734;8.950;2022-12-18T05:50:00;-4.70;99.90
4727;DHT22;2377;51.734;8.950;2022-12-18T05:52:27;-4.60;99.90
4727;DHT22;2377;51.734;8.950;2022-12-18T05:54:54;-4.70;99.90
4727;DHT22;2377;51.734;8.950;2022-12-18T05:57:23;-4.70;99.90
4727;DHT22;2377;51.734;8.950;2022-12-18T05:59:50;-4.80;99.90
4727;DHT22;2377;51.734;8.950;2022-12-18T06:02:17;-4.70;99.90
4727;DHT22;2377;51.734;8.950;2022-12-18T06:04:46;-4.70;99.90
4727;DHT22;2377;51.734;8.950;2022-12-18T06:07:13;-4.80;99.90
4727;DHT22;2377;51.734;8.950;2022-12-18T06:09:41;-4.80;99.90
4727;DHT22;2377;51.734;8.950;2022-12-18T06:12:08;-4.80;99.90
4727;DHT22;2377;51.734;8.950;2022-12-18T06:14:37;-4.80;99.90
4727;DHT22;2377;51.734;8.950;2022-12-18T06:17:04;-4.80;99.90
4727;DHT22;2377;51.734;8.950;2022-12-18T06:19:31;-4.80;99.90
4727;DHT22;2377;51.734;8.950;2022-12-18T06:21:59;-4.90;99.90
4727;DHT22;2377;51.734;8.950;2022-12-18T06:24:26;-4.90;99.90
4727;DHT22;2377;51.734;8.950;2022-12-18T06:26:53;-4.90;99.90
4727;DHT22;2377;51.734;8.950;2022-12-18T06:29:20;-4.90;99.90
4727;DHT22;2377;51.734;8.950;2022-12-18T06:34:17;-5.00;99.90
4727;DHT22;2377;51.734;8.950;2022-12-18T06:36:44;-5.00;99.90
4727;DHT22;2377;51.734;8.950;2022-12-18T06:39:11;-5.00;99.90
4727;DHT22;2377;51.734;8.950;2022-12-18T06:41:39;-5.00;99.90
4727;DHT22;2377;51.734;8.950;2022-12-18T06:44:06;-5.00;99.90
4727;DHT22;2377;51.734;8.950;2022-12-18T06:46:33;-5.00;99.90
4727;DHT22;2377;51.734;8.950;2022-12-18T06:49:00;-4.90;99.90
4727;DHT22;2377;51.734;8.950;2022-12-18T06:51:29;-4.90;99.90
4727;DHT22;2377;51.734;8.950;2022-12-18T06:53:56;-4.90;99.90
4727;DHT22;2377;51.734;8.950;2022-12-18T06:56:23;-4.90;99.90
4727;DHT22;2377;51.734;8.950;2022-12-18T06:58:51;-4.90;99.90
4727;DHT22;2377;51.734;8.950;2022-12-18T07:01:18;-5.00;99.90
4727;DHT22;2377;51.734;8.950;2022-12-18T07:03:45;-5.00;99.90
4727;DHT22;2377;51.734;8.950;2022-12-18T07:06:14;-5.00;99.90
4727;DHT22;2377;51.734;8.950;2022-12-18T07:08:44;-5.00;99.90
4727;DHT22;2377;51.734;8.950;2022-12-18T07:11:12;-5.00;99.90
4727;DHT22;2377;51.734;8.950;2022-12-18T07:13:40;-5.00;99.90
4727;DHT22;2377;51.734;8.950;2022-12-18T07:16:08;-5.00;99.90
4727;DHT22;2377;51.734;8.950;2022-12-18T07:18:36;-5.00;99.90
4727;DHT22;2377;51.734;8.950;2022-12-18T07:21:04;-5.00;99.90
4727;DHT22;2377;51.734;8.950;2022-12-18T07:23:32;-5.10;99.90
4727;DHT22;2377;51.734;8.950;2022-12-18T07:26:05;-5.00;99.90
4727;DHT22;2377;51.734;8.950;2022-12-18T07:28:35;-5.00;99.90
4727;DHT22;2377;51.734;8.950;2022-12-18T07:31:03;-5.00;99.90
4727;DHT22;2377;51.734;8.950;2022-12-18T07:33:33;-5.00;99.90
4727;DHT22;2377;51.734;8.950;2022-12-18T07:36:00;-5.00;99.90
4727;DHT22;2377;51.734;8.950;2022-12-18T07:38:28;-4.90;99.90
4727;DHT22;2377;51.734;8.950;2022-12-18T07:41:00;-4.80;99.90
4727;DHT22;2377;51.734;8.950;2022-12-18T07:43:29;-4.80;99.90
4727;DHT22;2377;51.734;8.950;2022-12-18T07:45:57;-4.70;99.90
4727;DHT22;2377;51.734;8.950;2022-12-18T07:48:24;-4.70;99.90
4727;DHT22;2377;51.734;8.950;2022-12-18T07:50:52;-4.70;99.90
4727;DHT22;2377;51.734;8.950;2022-12-18T07:53:19;-4.70;99.90
4727;DHT22;2377;51.734;8.950;2022-12-18T07:55:46;-4.70;99.90
4727;DHT22;2377;51.734;8.950;2022-12-18T07:58:14;-4.60;99.90
4727;DHT22;2377;51.734;8.950;2022-12-18T08:00:42;-4.70;99.90
4727;DHT22;2377;51.734;8.950;2022-12-18T08:03:09;-4.60;99.90
4727;DHT22;2377;51.734;8.950;2022-12-18T08:05:42;-4.70;99.90
4727;DHT22;2377;51.734;8.950;2022-12-18T08:08:09;-4.70;99.90
4727;DHT22;2377;51.734;8.950;2022-12-18T08:10:37;-4.70;99.90
4727;DHT22;2377;51.734;8.950;2022-12-18T08:13:04;-4.60;99.90
4727;DHT22;2377;51.734;8.950;2022-12-18T08:15:32;-4.60;99.90
4727;DHT22;2377;51.734;8.950;2022-12-18T08:18:01;-4.50;99.90
4727;DHT22;2377;51.734;8.950;2022-12-18T08:20:28;-4.50;99.90
4727;DHT22;2377;51.734;8.950;2022-12-18T08:22:55;-4.50;99.90
4727;DHT22;2377;51.734;8.950;2022-12-18T08:25:23;-4.50;99.90
4727;DHT22;2377;51.734;8.950;2022-12-18T08:27:50;-4.50;99.90
4727;DHT22;2377;51.734;8.950;2022-12-18T08:30:18;-4.40;99.90
4727;DHT22;2377;51.734;8.950;2022-12-18T08:32:45;-4.30;99.90
4727;DHT22;2377;51.734;8.950;2022-12-18T08:35:13;-4.30;99.90
4727;DHT22;2377;51.734;8.950;2022-12-18T08:37:41;-4.20;99.90
4727;DHT22;2377;51.734;8.950;2022-12-18T08:40:09;-4.10;99.90
4727;DHT22;2377;51.734;8.950;2022-12-18T08:42:38;-4.10;99.90
4727;DHT22;2377;51.734;8.950;2022-12-18T08:45:22;-4.00;99.90
4727;DHT22;2377;51.734;8.950;2022-12-18T08:47:50;-4.00;99.90
4727;DHT22;2377;51.734;8.950;2022-12-18T08:50:18;-4.00;99.90
4727;DHT22;2377;51.734;8.950;2022-12-18T08:52:46;-4.00;99.90
4727;DHT22;2377;51.734;8.950;2022-12-18T08:55:13;-3.90;99.90
4727;DHT22;2377;51.734;8.950;2022-12-18T08:57:41;-3.80;99.90
4727;DHT22;2377;51.734;8.950;2022-12-18T09:00:09;-3.80;99.90
4727;DHT22;2377;51.734;8.950;2022-12-18T09:02:38;-3.80;99.90
4727;DHT22;2377;51.734;8.950;2022-12-18T09:05:06;-3.70;99.90
4727;DHT22;2377;51.734;8.950;2022-12-18T09:07:35;-3.60;99.90
4727;DHT22;2377;51.734;8.950;2022-12-18T09:10:03;-3.50;99.90
4727;DHT22;2377;51.734;8.950;2022-12-18T09:12:31;-3.40;99.90
4727;DHT22;2377;51.734;8.950;2022-12-18T09:14:59;-3.30;99.90
4727;DHT22;2377;51.734;8.950;2022-12-18T09:17:26;-3.10;99.90
4727;DHT22;2377;51.734;8.950;2022-12-18T09:19:53;-3.10;99.90
4727;DHT22;2377;51.734;8.950;2022-12-18T09:22:21;-3.10;99.90
4727;DHT22;2377;51.734;8.950;2022-12-18T09:24:50;-3.10;99.90
4727;DHT22;2377;51.734;8.950;2022-12-18T09:27:17;-3.00;99.90
4727;DHT22;2377;51.734;8.950;2022-12-18T09:29:44;-3.10;99.90
4727;DHT22;2377;51.734;8.950;2022-12-18T09:32:12;-3.00;99.90
4727;DHT22;2377;51.734;8.950;2022-12-18T09:34:39;-3.00;99.90
4727;DHT22;2377;51.734;8.950;2022-12-18T09:37:06;-3.00;99.90
4727;DHT22;2377;51.734;8.950;2022-12-18T09:39:33;-3.10;99.90
4727;DHT22;2377;51.734;8.950;2022-12-18T09:42:02;-3.00;99.90
4727;DHT22;2377;51.734;8.950;2022-12-18T09:44:32;-3.00;99.90
4727;DHT22;2377;51.734;8.950;2022-12-18T09:47:08;-3.10;99.90
4727;DHT22;2377;51.734;8.950;2022-12-18T09:49:42;-3.00;99.90
4727;DHT22;2377;51.734;8.950;2022-12-18T09:52:16;-3.00;99.90
4727;DHT22;2377;51.734;8.950;2022-12-18T09:54:52;-3.10;99.90
4727;DHT22;2377;51.734;8.950;2022-12-18T09:57:24;-3.10;99.90
4727;DHT22;2377;51.734;8.950;2022-12-18T09:59:55;-3.20;99.90
4727;DHT22;2377;51.734;8.950;2022-12-18T10:02:29;-3.20;99.90
4727;DHT22;2377;51.734;8.950;2022-12-18T10:05:04;-3.30;99.90
4727;DHT22;2377;51.734;8.950;2022-12-18T10:07:46;-3.30;99.90
4727;DHT22;2377;51.734;8.950;2022-12-18T10:10:29;-3.30;99.90
4727;DHT22;2377;51.734;8.950;2022-12-18T10:13:13;-3.10;99.90
4727;DHT22;2377;51.734;8.950;2022-12-18T10:15:54;-3.00;99.90
4727;DHT22;2377;51.734;8.950;2022-12-18T10:18:45;-2.80;99.90
4727;DHT22;2377;51.734;8.950;2022-12-18T10:21:26;-2.50;99.90
4727;DHT22;2377;51.734;8.950;2022-12-18T10:24:10;-1.90;99.90
4727;DHT22;2377;51.734;8.950;2022-12-18T10:26:53;-1.30;99.90
4727;DHT22;2377;51.734;8.950;2022-12-18T10:29:28;-0.80;99.90
4727;DHT22;2377;51.734;8.950;2022-12-18T10:31:56;-0.50;99.90
4727;DHT22;2377;51.734;8.950;2022-12-18T10:34:23;-0.20;99.90
4727;DHT22;2377;51.734;8.950;2022-12-18T10:36:51;0.00;99.90
4727;DHT22;2377;51.734;8.950;2022-12-18T10:39:20;0.20;99.90
4727;DHT22;2377;51.734;8.950;2022-12-18T10:41:48;0.50;99.90
4727;DHT22;2377;51.734;8.950;2022-12-18T10:44:18;0.70;99.90
4727;DHT22;2377;51.734;8.950;2022-12-18T10:46:51;0.90;99.90
4727;DHT22;2377;51.734;8.950;2022-12-18T10:49:25;0.70;99.90
4727;DHT22;2377;51.734;8.950;2022-12-18T10:52:10;0.60;99.90
4727;DHT22;2377;51.734;8.950;2022-12-18T10:54:47;0.80;99.90
4727;DHT22;2377;51.734;8.950;2022-12-18T10:57:29;0.80;99.90
4727;DHT22;2377;51.734;8.950;2022-12-18T11:00:01;0.40;99.90
4727;DHT22;2377;51.734;8.950;2022-12-18T11:02:48;0.30;99.90
4727;DHT22;2377;51.734;8.950;2022-12-18T11:05:27;0.10;99.90
4727;DHT22;2377;51.734;8.950;2022-12-18T11:07:57;-0.20;99.90
4727;DHT22;2377;51.734;8.950;2022-12-18T11:10:31;-0.60;99.90
4727;DHT22;2377;51.734;8.950;2022-12-18T11:13:11;-0.70;99.90
4727;DHT22;2377;51.734;8.950;2022-12-18T11:15:44;-0.90;99.90
4727;DHT22;2377;51.734;8.950;2022-12-18T11:18:19;-1.00;99.90
4727;DHT22;2377;51.734;8.950;2022-12-18T11:20:54;-1.00;99.90
4727;DHT22;2377;51.734;8.950;2022-12-18T11:23:24;-1.10;99.90
4727;DHT22;2377;51.734;8.950;2022-12-18T11:25:54;-1.10;99.90
4727;DHT22;2377;51.734;8.950;2022-12-18T11:28:29;-1.20;99.90
4727;DHT22;2377;51.734;8.950;2022-12-18T11:31:17;-1.20;99.90
4727;DHT22;2377;51.734;8.950;2022-12-18T11:34:00;-1.30;99.90
4727;DHT22;2377;51.734;8.950;2022-12-18T11:36:33;-1.30;99.90
4727;DHT22;2377;51.734;8.950;2022-12-18T11:39:12;-1.30;99.90
4727;DHT22;2377;51.734;8.950;2022-12-18T11:41:50;-1.30;99.90
4727;DHT22;2377;51.734;8.950;2022-12-18T11:44:42;-1.30;99.90
4727;DHT22;2377;51.734;8.950;2022-12-18T11:47:24;-1.30;99.90
4727;DHT22;2377;51.734;8.950;2022-12-18T11:50:01;-1.30;99.90
4727;DHT22;2377;51.734;8.950;2022-12-18T11:52:34;-1.30;99.90
4727;DHT22;2377;51.734;8.950;2022-12-18T11:55:11;-1.30;99.90
4727;DHT22;2377;51.734;8.950;2022-12-18T11:57:46;-1.30;99.90
4727;DHT22;2377;51.734;8.950;2022-12-18T12:00:22;-1.40;99.90
4727;DHT22;2377;51.734;8.950;2022-12-18T12:03:08;-1.30;99.90
4727;DHT22;2377;51.734;8.950;2022-12-18T12:05:58;-1.30;99.90
4727;DHT22;2377;51.734;8.950;2022-12-18T12:08:43;-1.30;99.90
4727;DHT22;2377;51.734;8.950;2022-12-18T12:11:26;-1.30;99.90
4727;DHT22;2377;51.734;8.950;2022-12-18T12:14:21;-1.30;99.90
4727;DHT22;2377;51.734;8.950;2022-12-18T12:17:05;-1.40;99.90
4727;DHT22;2377;51.734;8.950;2022-12-18T12:19:46;-1.30;99.90
4727;DHT22;2377;51.734;8.950;2022-12-18T12:22:26;-1.30;99.90
4727;DHT22;2377;51.734;8.950;2022-12-18T12:25:23;-1.30;99.90
4727;DHT22;2377;51.734;8.950;2022-12-18T12:28:09;-1.30;99.90
4727;DHT22;2377;51.734;8.950;2022-12-18T12:30:53;-1.30;99.90
4727;DHT22;2377;51.734;8.950;2022-12-18T12:33:36;-1.40;99.90
4727;DHT22;2377;51.734;8.950;2022-12-18T12:36:15;-1.40;99.90
4727;DHT22;2377;51.734;8.950;2022-12-18T12:38:52;-1.30;99.90
4727;DHT22;2377;51.734;8.950;2022-12-18T12:41:24;-1.40;99.90
4727;DHT22;2377;51.734;8.950;2022-12-18T12:44:16;-1.40;99.90
4727;DHT22;2377;51.734;8.950;2022-12-18T12:46:48;-1.30;99.90
4727;DHT22;2377;51.734;8.950;2022-12-18T12:49:21;-1.30;99.90
4727;DHT22;2377;51.734;8.950;2022-12-18T12:51:58;-1.30;99.90
4727;DHT22;2377;51.734;8.950;2022-12-18T12:54:34;-1.30;99.90
4727;DHT22;2377;51.734;8.950;2022-12-18T12:57:08;-1.30;99.90
4727;DHT22;2377;51.734;8.950;2022-12-18T12:59:47;-1.30;99.90
4727;DHT22;2377;51.734;8.950;2022-12-18T13:02:28;-1.30;99.90
4727;DHT22;2377;51.734;8.950;2022-12-18T13:05:06;-1.30;99.90
4727;DHT22;2377;51.734;8.950;2022-12-18T13:07:50;-1.30;99.90
4727;DHT22;2377;51.734;8.950;2022-12-18T13:10:30;-1.30;99.90
4727;DHT22;2377;51.734;8.950;2022-12-18T13:13:01;-1.30;99.90
4727;DHT22;2377;51.734;8.950;2022-12-18T13:15:33;-1.30;99.90
4727;DHT22;2377;51.734;8.950;2022-12-18T13:18:05;-1.30;99.90
4727;DHT22;2377;51.734;8.950;2022-12-18T13:21:03;-1.30;99.90
4727;DHT22;2377;51.734;8.950;2022-12-18T13:23:41;-1.30;99.90
4727;DHT22;2377;51.734;8.950;2022-12-18T13:26:36;-1.20;99.90
4727;DHT22;2377;51.734;8.950;2022-12-18T13:29:04;-1.20;99.90
4727;DHT22;2377;51.734;8.950;2022-12-18T13:34:46;-1.20;99.90
4727;DHT22;2377;51.734;8.950;2022-12-18T13:37:41;-1.20;99.90
4727;DHT22;2377;51.734;8.950;2022-12-18T13:43:31;-1.20;99.90
4727;DHT22;2377;51.734;8.950;2022-12-18T13:46:26;-1.30;99.90
4727;DHT22;2377;51.734;8.950;2022-12-18T13:49:00;-1.30;99.90
4727;DHT22;2377;51.734;8.950;2022-12-18T13:51:32;-1.30;99.90
4727;DHT22;2377;51.734;8.950;2022-12-18T13:54:02;-1.30;99.90
4727;DHT22;2377;51.734;8.950;2022-12-18T13:56:44;-1.40;99.90
4727;DHT22;2377;51.734;8.950;2022-12-18T13:59:16;-1.30;99.90
4727;DHT22;2377;51.734;8.950;2022-12-18T14:01:49;-1.30;99.90
4727;DHT22;2377;51.734;8.950;2022-12-18T14:04:22;-1.40;99.90
4727;DHT22;2377;51.734;8.950;2022-12-18T14:06:55;-1.40;99.90
4727;DHT22;2377;51.734;8.950;2022-12-18T14:09:27;-1.40;99.90
4727;DHT22;2377;51.734;8.950;2022-12-18T14:11:57;-1.40;99.90
4727;DHT22;2377;51.734;8.950;2022-12-18T14:14:41;-1.50;99.90
4727;DHT22;2377;51.734;8.950;2022-12-18T14:17:11;-1.40;99.90
4727;DHT22;2377;51.734;8.950;2022-12-18T14:19:42;-1.40;99.90
4727;DHT22;2377;51.734;8.950;2022-12-18T14:22:17;-1.50;99.90
4727;DHT22;2377;51.734;8.950;2022-12-18T14:24:47;-1.50;99.90
4727;DHT22;2377;51.734;8.950;2022-12-18T14:27:31;-1.50;99.90
4727;DHT22;2377;51.734;8.950;2022-12-18T14:30:00;-1.50;99.90
4727;DHT22;2377;51.734;8.950;2022-12-18T14:32:27;-1.50;99.90
4727;DHT22;2377;51.734;8.950;2022-12-18T14:34:54;-1.50;99.90
4727;DHT22;2377;51.734;8.950;2022-12-18T14:37:24;-1.60;99.90
4727;DHT22;2377;51.734;8.950;2022-12-18T14:39:54;-1.50;99.90
4727;DHT22;2377;51.734;8.950;2022-12-18T14:42:22;-1.50;99.90
4727;DHT22;2377;51.734;8.950;2022-12-18T14:48:15;-1.60;99.90
4727;DHT22;2377;51.734;8.950;2022-12-18T14:50:44;-1.60;99.90
4727;DHT22;2377;51.734;8.950;2022-12-18T14:53:26;-1.60;99.90
4727;DHT22;2377;51.734;8.950;2022-12-18T14:56:00;-1.60;99.90
4727;DHT22;2377;51.734;8.950;2022-12-18T14:58:28;-1.60;99.90
4727;DHT22;2377;51.734;8.950;2022-12-18T15:00:56;-1.60;99.90
4727;DHT22;2377;51.734;8.950;2022-12-18T15:03:25;-1.60;99.90
4727;DHT22;2377;51.734;8.950;2022-12-18T15:05:52;-1.60;99.90
4727;DHT22;2377;51.734;8.950;2022-12-18T15:08:30;-1.60;99.90
4727;DHT22;2377;51.734;8.950;2022-12-18T15:11:01;-1.60;99.90
4727;DHT22;2377;51.734;8.950;2022-12-18T15:13:29;-1.60;99.90
4727;DHT22;2377;51.734;8.950;2022-12-18T15:15:57;-1.60;99.90
4727;DHT22;2377;51.734;8.950;2022-12-18T15:18:33;-1.60;99.90
4727;DHT22;2377;51.734;8.950;2022-12-18T15:21:10;-1.60;99.90
4727;DHT22;2377;51.734;8.950;2022-12-18T15:23:47;-1.60;99.90
4727;DHT22;2377;51.734;8.950;2022-12-18T15:26:18;-1.60;99.90
4727;DHT22;2377;51.734;8.950;2022-12-18T15:28:48;-1.60;99.90
4727;DHT22;2377;51.734;8.950;2022-12-18T15:31:28;-1.60;99.90
4727;DHT22;2377;51.734;8.950;2022-12-18T15:34:10;-1.70;99.90
4727;DHT22;2377;51.734;8.950;2022-12-18T15:36:47;-1.70;99.90
4727;DHT22;2377;51.734;8.950;2022-12-18T15:39:17;-1.70;99.90
4727;DHT22;2377;51.734;8.950;2022-12-18T15:41:45;-1.80;99.90
4727;DHT22;2377;51.734;8.950;2022-12-18T15:44:26;-1.80;99.90
4727;DHT22;2377;51.734;8.950;2022-12-18T15:46:54;-1.70;99.90
4727;DHT22;2377;51.734;8.950;2022-12-18T15:49:24;-1.80;99.90
4727;DHT22;2377;51.734;8.950;2022-12-18T15:51:52;-1.80;99.90
4727;DHT22;2377;51.734;8.950;2022-12-18T15:54:21;-1.80;99.90
4727;DHT22;2377;51.734;8.950;2022-12-18T15:57:10;-1.80;99.90
4727;DHT22;2377;51.734;8.950;2022-12-18T15:59:49;-1.80;99.90
4727;DHT22;2377;51.734;8.950;2022-12-18T16:02:17;-1.80;99.90
4727;DHT22;2377;51.734;8.950;2022-12-18T16:04:46;-1.80;99.90
4727;DHT22;2377;51.734;8.950;2022-12-18T16:07:14;-1.80;99.90
4727;DHT22;2377;51.734;8.950;2022-12-18T16:09:41;-1.80;99.90
4727;DHT22;2377;51.734;8.950;2022-12-18T16:12:15;-1.80;99.90
4727;DHT22;2377;51.734;8.950;2022-12-18T16:14:44;-1.90;99.90
4727;DHT22;2377;51.734;8.950;2022-12-18T16:17:12;-1.80;99.90
4727;DHT22;2377;51.734;8.950;2022-12-18T16:19:41;-1.90;99.90
4727;DHT22;2377;51.734;8.950;2022-12-18T16:22:17;-1.90;99.90
4727;DHT22;2377;51.734;8.950;2022-12-18T16:24:48;-1.90;99.90
4727;DHT22;2377;51.734;8.950;2022-12-18T16:27:16;-1.90;99.90
4727;DHT22;2377;51.734;8.950;2022-12-18T16:29:43;-1.90;99.90
4727;DHT22;2377;51.734;8.950;2022-12-18T16:32:13;-2.00;99.90
4727;DHT22;2377;51.734;8.950;2022-12-18T16:34:42;-2.00;99.90
4727;DHT22;2377;51.734;8.950;2022-12-18T16:37:13;-2.00;99.90
4727;DHT22;2377;51.734;8.950;2022-12-18T16:39:42;-2.00;99.90
4727;DHT22;2377;51.734;8.950;2022-12-18T16:42:12;-2.00;99.90
4727;DHT22;2377;51.734;8.950;2022-12-18T16:44:42;-2.00;99.90
4727;DHT22;2377;51.734;8.950;2022-12-18T16:47:10;-2.00;99.90
4727;DHT22;2377;51.734;8.950;2022-12-18T16:49:37;-2.00;99.90